createdAt,value
2023-08-07T00:01:56.144Z,98757.38
2023-08-07T00:04:23.004Z,98749.25
2023-08-07T00:06:50.172Z,98754.19
2023-08-07T00:09:16.865Z,98765.69
2023-08-07T00:11:43.604Z,98763.53
2023-08-07T00:14:10.342Z,98754.72
2023-08-07T00:16:37.060Z,98770.59
2023-08-07T00:19:04.188Z,98771.59
2023-08-07T00:21:30.978Z,98774.91
2023-08-07T00:23:57.724Z,98779.03
2023-08-07T00:26:24.574Z,98774.34
2023-08-07T00:28:51.271Z,98771.41
2023-08-07T00:31:17.992Z,98775.84
2023-08-07T00:33:44.832Z,98778.94
2023-08-07T00:36:11.587Z,98791.38
2023-08-07T00:38:38.257Z,98790.38
2023-08-07T00:41:05.035Z,98782.56
2023-08-07T00:43:31.721Z,98789.88
2023-08-07T00:45:58.701Z,98797.13
2023-08-07T00:48:25.569Z,98800.50
2023-08-07T00:50:53.151Z,98803.22
2023-08-07T00:53:19.941Z,98800.31
2023-08-07T00:55:47.707Z,98810.84
2023-08-07T00:58:14.884Z,98809.66
2023-08-07T01:00:43.627Z,98811.34
2023-08-07T01:03:13.863Z,98799.69
2023-08-07T01:05:40.946Z,98810.72
2023-08-07T01:08:08.131Z,98812.56
2023-08-07T01:10:53.155Z,98821.59
2023-08-07T01:13:43.722Z,98822.47
2023-08-07T01:17:06.140Z,98822.00
2023-08-07T01:19:33.114Z,98826.41
2023-08-07T01:22:13.506Z,98830.41
2023-08-07T01:24:47.883Z,98825.19
2023-08-07T01:27:20.859Z,98832.69
2023-08-07T01:29:50.938Z,98842.06
2023-08-07T01:32:51.401Z,98840.53
2023-08-07T01:35:21.812Z,98840.31
2023-08-07T01:37:51.247Z,98854.41
2023-08-07T01:40:18.335Z,98853.66
2023-08-07T01:42:46.300Z,98854.97
2023-08-07T01:45:13.087Z,98856.78
2023-08-07T01:47:39.960Z,98858.19
2023-08-07T01:50:07.566Z,98865.22
2023-08-07T01:52:34.291Z,98867.63
2023-08-07T01:55:00.952Z,98846.56
2023-08-07T01:57:27.757Z,98864.50
2023-08-07T01:59:54.555Z,98857.69
2023-08-07T02:02:21.272Z,98866.81
2023-08-07T02:04:48.166Z,98865.81
2023-08-07T02:07:15.281Z,98877.97
2023-08-07T02:09:42.013Z,98868.81
2023-08-07T02:12:09.321Z,98868.44
2023-08-07T02:14:36.109Z,98876.25
2023-08-07T02:17:02.849Z,98881.59
2023-08-07T02:19:29.513Z,98889.97
2023-08-07T02:21:56.290Z,98883.75
2023-08-07T02:24:23.094Z,98902.59
2023-08-07T02:26:49.855Z,98880.31
2023-08-07T02:29:16.731Z,98896.81
2023-08-07T02:31:43.500Z,98900.22
2023-08-07T02:34:10.252Z,98906.56
2023-08-07T02:36:37.000Z,98902.84
2023-08-07T02:39:04.949Z,98906.13
2023-08-07T02:41:32.394Z,98908.94
2023-08-07T02:43:59.239Z,98911.56
2023-08-07T02:46:25.989Z,98911.97
2023-08-07T02:48:53.873Z,98912.09
2023-08-07T02:51:20.673Z,98896.72
2023-08-07T02:53:47.299Z,98911.56
2023-08-07T02:56:14.021Z,98895.25
2023-08-07T02:58:40.801Z,98919.94
2023-08-07T03:01:07.844Z,98901.16
2023-08-07T03:03:34.727Z,98926.66
2023-08-07T03:06:01.674Z,98937.69
2023-08-07T03:08:28.390Z,98936.31
2023-08-07T03:10:58.745Z,98942.53
2023-08-07T03:13:26.582Z,98953.38
2023-08-07T03:16:07.294Z,98948.75
2023-08-07T03:18:34.449Z,98946.41
2023-08-07T03:21:01.215Z,98962.69
2023-08-07T03:23:29.692Z,98958.81
2023-08-07T03:26:17.598Z,98965.31
2023-08-07T03:28:47.452Z,98943.09
2023-08-07T03:31:14.239Z,98965.53
2023-08-07T03:33:41.027Z,98967.00
2023-08-07T03:36:07.847Z,98969.56
2023-08-07T03:38:34.620Z,98970.06
2023-08-07T03:41:01.404Z,98954.03
2023-08-07T03:43:28.133Z,98973.78
2023-08-07T03:46:00.520Z,98975.78
2023-08-07T03:48:29.159Z,98985.34
2023-08-07T03:51:05.422Z,98983.53
2023-08-07T03:53:32.216Z,98973.66
2023-08-07T03:55:58.960Z,98988.28
2023-08-07T03:58:25.805Z,98983.06
2023-08-07T04:00:53.398Z,98992.13
2023-08-07T04:03:22.003Z,98998.25
2023-08-07T04:05:52.834Z,98984.25
2023-08-07T04:08:19.552Z,98991.44
2023-08-07T04:10:46.209Z,99000.78
2023-08-07T04:13:12.944Z,99007.00
2023-08-07T04:15:39.702Z,99004.94
2023-08-07T04:18:07.114Z,99000.66
2023-08-07T04:20:33.889Z,99010.28
2023-08-07T04:23:00.536Z,99001.53
2023-08-07T04:25:27.563Z,99021.94
2023-08-07T04:27:54.365Z,99024.13
2023-08-07T04:30:21.134Z,99021.13
2023-08-07T04:32:48.251Z,99023.31
2023-08-07T04:35:14.984Z,99030.47
2023-08-07T04:37:41.815Z,99028.50
2023-08-07T04:40:09.925Z,99020.69
2023-08-07T04:42:36.637Z,99031.91
2023-08-07T04:45:03.485Z,99039.56
2023-08-07T04:47:30.258Z,99043.91
2023-08-07T04:49:57.010Z,99043.59
2023-08-07T04:52:26.854Z,99048.16
2023-08-07T04:54:53.933Z,99044.78
2023-08-07T04:57:20.721Z,99045.78
2023-08-07T04:59:47.452Z,99043.00
2023-08-07T05:02:14.215Z,99047.13
2023-08-07T05:04:41.205Z,99042.53
2023-08-07T05:07:07.900Z,99051.16
2023-08-07T05:09:34.574Z,99044.56
2023-08-07T05:12:01.282Z,99050.06
2023-08-07T05:14:28.288Z,99047.28
2023-08-07T05:16:55.204Z,99058.53
2023-08-07T05:19:22.393Z,99056.41
2023-08-07T05:21:52.561Z,99051.69
2023-08-07T05:24:19.532Z,99047.03
2023-08-07T05:26:46.940Z,99065.75
2023-08-07T05:29:13.728Z,99070.66
2023-08-07T05:31:40.392Z,99075.97
2023-08-07T05:34:08.948Z,99060.44
2023-08-07T05:36:35.714Z,99067.16
2023-08-07T05:39:02.473Z,99068.44
2023-08-07T05:41:29.244Z,99067.34
2023-08-07T05:43:55.977Z,99068.66
2023-08-07T05:46:22.782Z,99073.03
2023-08-07T05:48:49.580Z,99085.22
2023-08-07T05:51:16.279Z,99053.56
2023-08-07T05:53:43.771Z,99078.09
2023-08-07T05:56:10.619Z,99089.16
2023-08-07T05:58:37.327Z,99085.97
2023-08-07T06:01:04.262Z,99091.63
2023-08-07T06:03:31.117Z,99094.22
2023-08-07T06:05:57.828Z,99104.16
2023-08-07T06:08:24.680Z,99106.97
2023-08-07T06:10:51.458Z,99108.44
2023-08-07T06:13:30.383Z,99109.75
2023-08-07T06:16:02.520Z,99109.41
2023-08-07T06:18:29.301Z,99095.78
2023-08-07T06:20:57.277Z,99109.41
2023-08-07T06:23:24.169Z,99113.34
2023-08-07T06:25:52.690Z,99105.81
2023-08-07T06:28:22.960Z,99103.66
2023-08-07T06:30:49.763Z,99110.25
2023-08-07T06:33:16.483Z,99113.63
2023-08-07T06:35:43.937Z,99119.56
2023-08-07T06:38:10.699Z,99117.31
2023-08-07T06:40:37.571Z,99124.53
2023-08-07T06:43:04.342Z,99127.88
2023-08-07T06:48:25.299Z,99131.72
2023-08-07T06:50:52.411Z,99119.81
2023-08-07T06:53:20.942Z,99134.75
2023-08-07T06:55:47.752Z,99130.28
2023-08-07T06:58:14.502Z,99129.47
2023-08-07T07:00:41.208Z,99132.28
2023-08-07T07:03:09.116Z,99135.28
2023-08-07T07:05:35.904Z,99136.28
2023-08-07T07:08:02.774Z,99139.38
2023-08-07T07:10:29.735Z,99132.84
2023-08-07T07:12:56.649Z,99137.16
2023-08-07T07:15:23.426Z,99140.72
2023-08-07T07:17:50.371Z,99147.19
2023-08-07T07:20:17.132Z,99149.53
2023-08-07T07:22:43.986Z,99139.81
2023-08-07T07:25:11.127Z,99147.38
2023-08-07T07:27:37.888Z,99141.94
2023-08-07T07:30:05.215Z,99148.44
2023-08-07T07:32:32.016Z,99146.78
2023-08-07T07:34:59.283Z,99148.97
2023-08-07T07:37:26.107Z,99156.28
2023-08-07T07:39:52.957Z,99152.09
2023-08-07T07:42:20.333Z,99156.47
2023-08-07T07:44:47.156Z,99154.41
2023-08-07T07:47:14.299Z,99160.22
2023-08-07T07:49:47.682Z,99156.09
2023-08-07T07:52:14.891Z,99153.50
2023-08-07T07:54:41.787Z,99139.81
2023-08-07T07:57:08.525Z,99137.97
2023-08-07T07:59:35.325Z,99146.63
2023-08-07T08:02:02.553Z,99146.84
2023-08-07T08:04:29.382Z,99149.63
2023-08-07T08:06:56.490Z,99145.06
2023-08-07T08:09:23.253Z,99143.31
2023-08-07T08:11:49.914Z,99136.47
2023-08-07T08:14:17.627Z,99139.13
2023-08-07T08:16:44.316Z,99134.78
2023-08-07T08:19:11.477Z,99142.88
2023-08-07T08:21:38.314Z,99137.47
2023-08-07T08:24:05.726Z,99132.31
2023-08-07T08:26:32.555Z,99124.47
2023-08-07T08:28:59.356Z,99130.66
2023-08-07T08:31:26.178Z,99125.00
2023-08-07T08:33:53.023Z,99126.59
2023-08-07T08:36:19.834Z,99126.25
2023-08-07T08:38:49.847Z,99110.44
2023-08-07T08:41:17.532Z,99131.66
2023-08-07T08:43:46.916Z,99137.56
2023-08-07T08:46:16.468Z,99128.59
2023-08-07T08:48:48.260Z,99125.84
2023-08-07T08:51:15.186Z,99119.84
2023-08-07T08:53:42.022Z,99120.44
2023-08-07T08:56:08.886Z,99129.66
2023-08-07T08:58:35.740Z,99123.81
2023-08-07T09:01:03.128Z,99123.91
2023-08-07T09:03:30.217Z,99115.72
2023-08-07T09:05:59.412Z,99111.31
2023-08-07T09:08:31.034Z,99113.75
2023-08-07T09:10:57.988Z,99121.22
2023-08-07T09:13:25.935Z,99118.31
2023-08-07T09:15:53.644Z,99110.59
2023-08-07T09:18:21.526Z,99111.78
2023-08-07T09:20:49.692Z,99113.84
2023-08-07T09:23:20.864Z,99120.88
2023-08-07T09:25:47.721Z,99119.28
2023-08-07T09:28:14.778Z,99123.91
2023-08-07T09:30:45.385Z,99115.34
2023-08-07T09:33:12.463Z,99110.78
2023-08-07T09:35:40.444Z,99110.13
2023-08-07T09:38:08.581Z,99117.72
2023-08-07T09:40:35.266Z,99133.22
2023-08-07T09:43:02.523Z,99118.41
2023-08-07T09:45:31.485Z,99122.53
2023-08-07T09:48:03.035Z,99119.00
2023-08-07T09:50:31.316Z,99126.53
2023-08-07T09:52:59.318Z,99123.78
2023-08-07T09:55:27.012Z,99130.13
2023-08-07T09:57:54.299Z,99137.06
2023-08-07T10:00:21.253Z,99128.84
2023-08-07T10:02:50.206Z,99125.53
2023-08-07T10:05:18.243Z,99132.47
2023-08-07T10:07:45.502Z,99131.03
2023-08-07T10:10:12.293Z,99127.66
2023-08-07T10:12:39.984Z,99130.47
2023-08-07T10:15:07.479Z,99119.69
2023-08-07T10:17:35.186Z,99131.84
2023-08-07T10:20:02.482Z,99127.88
2023-08-07T10:22:32.339Z,99130.91
2023-08-07T10:25:02.077Z,99129.38
2023-08-07T10:27:32.481Z,99128.41
2023-08-07T10:30:01.846Z,99133.16
2023-08-07T10:32:30.145Z,99128.81
2023-08-07T10:34:57.233Z,99119.56
2023-08-07T10:37:42.474Z,99125.88
2023-08-07T10:40:11.277Z,99118.31
2023-08-07T10:43:00.949Z,99135.72
2023-08-07T10:45:29.548Z,99112.09
2023-08-07T10:48:11.424Z,99128.81
2023-08-07T10:50:58.074Z,99130.66
2023-08-07T10:53:43.479Z,99133.34
2023-08-07T10:56:11.979Z,99135.88
2023-08-07T10:58:40.224Z,99142.28
2023-08-07T11:01:32.456Z,99125.09
2023-08-07T11:04:09.670Z,99127.22
2023-08-07T11:06:39.192Z,99130.28
2023-08-07T11:09:10.264Z,99126.47
2023-08-07T11:11:46.101Z,99118.31
2023-08-07T11:14:15.561Z,99121.16
2023-08-07T11:16:43.692Z,99115.66
2023-08-07T11:19:10.997Z,99112.09
2023-08-07T11:21:39.411Z,99096.72
2023-08-07T11:24:06.199Z,99094.84
2023-08-07T11:26:33.390Z,99093.81
2023-08-07T11:29:00.175Z,99088.81
2023-08-07T11:31:27.397Z,99095.47
2023-08-07T11:33:56.647Z,99093.59
2023-08-07T11:36:23.766Z,99094.69
2023-08-07T11:38:50.951Z,99084.41
2023-08-07T11:41:19.306Z,99080.56
2023-08-07T11:43:47.012Z,99087.97
2023-08-07T11:46:16.184Z,99086.50
2023-08-07T11:48:44.398Z,99087.22
2023-08-07T11:51:11.556Z,99083.38
2023-08-07T11:53:40.132Z,99080.69
2023-08-07T11:56:12.018Z,99074.75
2023-08-07T11:58:41.062Z,99079.38
2023-08-07T12:01:12.073Z,99078.06
2023-08-07T12:03:40.587Z,99068.22
2023-08-07T12:06:08.938Z,99064.28
2023-08-07T12:08:40.711Z,99066.34
2023-08-07T12:11:12.347Z,99065.78
2023-08-07T12:13:43.679Z,99059.19
2023-08-07T12:16:10.864Z,99064.53
2023-08-07T12:18:39.939Z,99066.84
2023-08-07T12:21:08.811Z,99068.28
2023-08-07T12:23:37.072Z,99067.38
2023-08-07T12:26:07.511Z,99057.78
2023-08-07T12:28:36.324Z,99068.16
2023-08-07T12:31:03.209Z,99066.06
2023-08-07T12:33:30.854Z,99065.03
2023-08-07T12:35:58.860Z,99067.97
2023-08-07T12:38:26.005Z,99065.59
2023-08-07T12:40:53.155Z,99058.88
2023-08-07T12:43:20.296Z,99072.34
2023-08-07T12:48:17.071Z,99074.25
2023-08-07T12:50:43.970Z,99072.50
2023-08-07T12:53:10.689Z,99072.00
2023-08-07T12:55:37.476Z,99078.91
2023-08-07T12:58:04.321Z,99083.94
2023-08-07T13:00:31.044Z,99088.94
2023-08-07T13:02:57.760Z,99081.53
2023-08-07T13:05:24.617Z,99075.97
2023-08-07T13:07:54.897Z,99081.50
2023-08-07T13:10:22.726Z,99075.97
2023-08-07T13:12:50.761Z,99081.81
2023-08-07T13:15:18.626Z,99076.81
2023-08-07T13:17:45.834Z,99082.75
2023-08-07T13:20:14.996Z,99077.28
2023-08-07T13:22:43.802Z,99082.28
2023-08-07T13:25:12.117Z,99072.03
2023-08-07T13:27:39.427Z,99074.34
2023-08-07T13:30:07.067Z,99081.03
2023-08-07T13:32:33.893Z,99073.91
2023-08-07T13:35:00.860Z,99073.94
2023-08-07T13:37:27.656Z,99073.25
2023-08-07T13:39:55.437Z,99074.03
2023-08-07T13:42:26.352Z,99065.88
2023-08-07T13:44:53.407Z,99062.53
2023-08-07T13:47:21.728Z,99066.72
2023-08-07T13:49:49.127Z,99051.16
2023-08-07T13:52:16.371Z,99038.84
2023-08-07T13:54:43.333Z,99063.09
2023-08-07T13:57:10.207Z,99064.84
2023-08-07T13:59:36.921Z,99057.69
2023-08-07T14:02:03.695Z,99058.13
2023-08-07T14:04:30.585Z,99054.25
2023-08-07T14:06:58.222Z,99057.31
2023-08-07T14:09:25.087Z,99040.44
2023-08-07T14:11:52.013Z,99049.50
2023-08-07T14:14:18.838Z,99045.00
2023-08-07T14:16:45.704Z,99043.75
2023-08-07T14:19:12.620Z,99038.00
2023-08-07T14:21:39.944Z,99045.09
2023-08-07T14:24:07.663Z,99028.31
2023-08-07T14:26:34.500Z,99037.81
2023-08-07T14:29:01.254Z,99032.72
2023-08-07T14:31:27.962Z,99023.03
2023-08-07T14:33:55.132Z,99035.38
2023-08-07T14:36:22.301Z,99012.81
2023-08-07T14:38:49.138Z,99028.59
2023-08-07T14:41:15.894Z,99038.00
2023-08-07T14:43:42.603Z,98994.34
2023-08-07T14:46:09.302Z,99032.34
2023-08-07T14:48:36.037Z,99020.91
2023-08-07T14:51:02.821Z,99027.34
2023-08-07T14:53:29.844Z,99021.19
2023-08-07T14:55:56.741Z,99017.84
2023-08-07T14:58:23.620Z,99024.78
2023-08-07T15:00:51.502Z,99013.47
2023-08-07T15:03:18.300Z,99025.31
2023-08-07T15:05:45.012Z,99007.34
2023-08-07T15:08:11.750Z,99004.75
2023-08-07T15:10:40.926Z,99011.69
2023-08-07T15:13:08.219Z,99028.69
2023-08-07T15:15:35.103Z,99020.00
2023-08-07T15:18:06.070Z,99024.59
2023-08-07T15:20:35.397Z,99025.16
2023-08-07T15:23:02.297Z,99025.59
2023-08-07T15:25:29.381Z,99024.59
2023-08-07T15:27:56.397Z,99025.03
2023-08-07T15:30:23.204Z,99021.72
2023-08-07T15:32:50.089Z,99022.13
2023-08-07T15:35:16.837Z,99027.03
2023-08-07T15:37:43.566Z,99030.69
2023-08-07T15:40:10.919Z,99031.06
2023-08-07T15:42:37.641Z,99031.97
2023-08-07T15:45:05.772Z,99024.00
2023-08-07T15:47:32.564Z,99038.94
2023-08-07T15:49:59.436Z,99038.16
2023-08-07T15:52:26.946Z,99041.34
2023-08-07T15:54:53.719Z,99031.09
2023-08-07T15:57:20.568Z,99034.72
2023-08-07T15:59:47.259Z,99038.41
2023-08-07T16:02:14.197Z,99029.94
2023-08-07T16:04:41.078Z,99041.38
2023-08-07T16:07:08.488Z,99036.34
2023-08-07T16:09:35.302Z,99037.63
2023-08-07T16:12:02.025Z,99042.28
2023-08-07T16:14:30.459Z,99034.78
2023-08-07T16:17:01.928Z,99040.56
2023-08-07T16:19:28.645Z,99042.06
2023-08-07T16:21:55.364Z,99042.66
2023-08-07T16:24:22.170Z,99043.91
2023-08-07T16:26:48.852Z,99055.53
2023-08-07T16:29:15.557Z,99055.84
2023-08-07T16:31:42.355Z,99057.34
2023-08-07T16:34:09.685Z,99054.66
2023-08-07T16:36:37.608Z,99057.63
2023-08-07T16:39:07.094Z,99061.84
2023-08-07T16:41:33.921Z,99066.38
2023-08-07T16:44:00.703Z,99068.78
2023-08-07T16:46:27.493Z,99070.66
2023-08-07T16:48:54.237Z,99061.72
2023-08-07T16:51:21.025Z,99070.28
2023-08-07T16:53:49.307Z,99077.91
2023-08-07T16:56:16.493Z,99070.91
2023-08-07T16:58:45.928Z,99074.94
2023-08-07T17:01:13.490Z,99076.69
2023-08-07T17:03:40.343Z,99068.63
2023-08-07T17:06:07.255Z,99073.34
2023-08-07T17:08:35.380Z,99066.78
2023-08-07T17:11:03.611Z,99080.81
2023-08-07T17:13:31.350Z,99083.13
2023-08-07T17:15:58.748Z,99081.19
2023-08-07T17:18:25.619Z,99080.22
2023-08-07T17:20:52.301Z,99081.59
2023-08-07T17:23:19.114Z,99080.13
2023-08-07T17:25:45.858Z,99078.59
2023-08-07T17:28:12.600Z,99089.53
2023-08-07T17:30:39.642Z,99078.19
2023-08-07T17:33:06.671Z,99089.19
2023-08-07T17:35:35.475Z,99094.81
2023-08-07T17:38:02.640Z,99087.09
2023-08-07T17:40:29.397Z,99113.44
2023-08-07T17:42:56.356Z,99110.22
2023-08-07T17:45:24.808Z,99111.53
2023-08-07T17:47:51.627Z,99119.53
2023-08-07T17:50:18.516Z,99111.22
2023-08-07T17:52:45.376Z,99119.06
2023-08-07T17:55:13.610Z,99107.22
2023-08-07T17:57:43.137Z,99102.69
2023-08-07T18:00:11.217Z,99102.22
2023-08-07T18:02:38.062Z,99114.88
2023-08-07T18:05:05.145Z,99106.69
2023-08-07T18:07:31.990Z,99124.78
2023-08-07T18:09:58.935Z,99122.22
2023-08-07T18:12:25.781Z,99129.88
2023-08-07T18:14:53.075Z,99140.88
2023-08-07T18:17:19.782Z,99152.25
2023-08-07T18:19:46.508Z,99151.09
2023-08-07T18:22:13.202Z,99147.50
2023-08-07T18:24:40.033Z,99152.56
2023-08-07T18:27:06.850Z,99159.97
2023-08-07T18:29:33.707Z,99159.38
2023-08-07T18:32:00.517Z,99142.72
2023-08-07T18:34:27.383Z,99154.97
2023-08-07T18:36:54.335Z,99160.81
2023-08-07T18:39:21.092Z,99166.25
2023-08-07T18:41:47.844Z,99168.59
2023-08-07T18:44:14.841Z,99165.59
2023-08-07T18:46:42.865Z,99166.66
2023-08-07T18:49:10.162Z,99164.94
2023-08-07T18:51:37.196Z,99168.50
2023-08-07T18:54:06.215Z,99149.97
2023-08-07T18:56:33.638Z,99155.47
2023-08-07T18:59:04.447Z,99168.78
2023-08-07T19:01:34.402Z,99162.31
2023-08-07T19:04:01.401Z,99150.69
2023-08-07T19:06:30.412Z,99165.22
2023-08-07T19:08:57.147Z,99169.53
2023-08-07T19:11:23.949Z,99166.78
2023-08-07T19:13:50.761Z,99156.88
2023-08-07T19:16:17.796Z,99159.59
2023-08-07T19:18:44.514Z,99170.13
2023-08-07T19:21:11.266Z,99164.19
2023-08-07T19:23:38.850Z,99180.31
2023-08-07T19:26:05.603Z,99180.38
2023-08-07T19:28:33.453Z,99165.59
2023-08-07T19:31:06.484Z,99163.44
2023-08-07T19:33:34.848Z,99159.66
2023-08-07T19:36:01.712Z,99149.06
2023-08-07T19:38:28.529Z,99159.19
2023-08-07T19:40:55.345Z,99147.94
2023-08-07T19:43:23.039Z,99148.63
2023-08-07T19:45:49.795Z,99155.38
2023-08-07T19:48:16.596Z,99157.13
2023-08-07T19:50:43.337Z,99173.13
2023-08-07T19:53:10.095Z,99173.63
2023-08-07T19:55:36.905Z,99188.59
2023-08-07T19:58:05.971Z,99193.44
2023-08-07T20:00:32.713Z,99203.47
2023-08-07T20:03:00.330Z,99199.94
2023-08-07T20:05:27.423Z,99189.88
2023-08-07T20:07:54.602Z,99183.81
2023-08-07T20:10:24.726Z,99201.97
2023-08-07T20:12:52.454Z,99193.09
2023-08-07T20:15:21.096Z,99194.88
2023-08-07T20:17:49.916Z,99201.38
2023-08-07T20:20:18.776Z,99192.91
2023-08-07T20:22:45.442Z,99209.91
2023-08-07T20:25:12.478Z,99205.06
2023-08-07T20:27:39.264Z,99218.66
2023-08-07T20:30:06.871Z,99228.50
2023-08-07T20:32:34.041Z,99226.34
2023-08-07T20:35:00.777Z,99225.44
2023-08-07T20:37:27.533Z,99227.31
2023-08-07T20:39:54.291Z,99221.59
2023-08-07T20:42:21.220Z,99228.19
2023-08-07T20:44:47.929Z,99219.53
2023-08-07T20:47:14.776Z,99222.72
2023-08-07T20:49:41.484Z,99232.16
2023-08-07T20:52:08.352Z,99232.53
2023-08-07T20:54:35.184Z,99239.84
2023-08-07T20:57:01.916Z,99247.16
2023-08-07T20:59:28.653Z,99252.38
2023-08-07T21:01:55.528Z,99259.16
2023-08-07T21:04:24.250Z,99262.59
2023-08-07T21:06:51.774Z,99259.28
2023-08-07T21:09:18.992Z,99256.00
2023-08-07T21:11:45.884Z,99262.22
2023-08-07T21:14:12.862Z,99277.44
2023-08-07T21:16:39.717Z,99270.00
2023-08-07T21:19:07.478Z,99271.94
2023-08-07T21:21:34.228Z,99270.81
2023-08-07T21:24:00.896Z,99264.25
2023-08-07T21:26:27.703Z,99261.88
2023-08-07T21:28:54.496Z,99260.97
2023-08-07T21:31:21.295Z,99243.16
2023-08-07T21:33:47.962Z,99261.47
2023-08-07T21:36:14.669Z,99258.13
2023-08-07T21:38:41.465Z,99255.13
2023-08-07T21:41:08.154Z,99258.84
2023-08-07T21:43:35.134Z,99256.13
2023-08-07T21:46:01.981Z,99236.72
2023-08-07T21:48:29.024Z,99246.75
2023-08-07T21:50:55.748Z,99248.03
2023-08-07T21:53:22.840Z,99251.31
2023-08-07T21:55:49.604Z,99258.00
2023-08-07T21:58:16.350Z,99251.31
2023-08-07T22:00:43.170Z,99241.31
2023-08-07T22:03:10.049Z,99248.69
2023-08-07T22:05:36.978Z,99255.63
2023-08-07T22:08:04.990Z,99257.56
2023-08-07T22:10:31.730Z,99261.34
2023-08-07T22:12:58.504Z,99266.75
2023-08-07T22:15:26.263Z,99264.06
2023-08-07T22:17:53.135Z,99265.59
2023-08-07T22:20:20.021Z,99274.59
2023-08-07T22:22:46.850Z,99279.84
2023-08-07T22:25:13.763Z,99278.31
2023-08-07T22:27:40.502Z,99280.44
2023-08-07T22:30:09.113Z,99271.09
2023-08-07T22:32:36.977Z,99280.78
2023-08-07T22:35:04.174Z,99288.03
2023-08-07T22:37:31.060Z,99282.03
2023-08-07T22:39:57.852Z,99282.47
2023-08-07T22:42:24.554Z,99260.28
2023-08-07T22:44:51.314Z,99263.50
2023-08-07T22:47:18.184Z,99273.38
2023-08-07T22:49:44.965Z,99278.22
2023-08-07T22:52:11.742Z,99272.03
2023-08-07T22:54:38.417Z,99265.41
2023-08-07T22:57:05.380Z,99277.63
2023-08-07T22:59:33.164Z,99280.38
2023-08-07T23:02:00.213Z,99267.69
2023-08-07T23:04:27.186Z,99281.38
2023-08-07T23:06:53.895Z,99270.75
2023-08-07T23:09:20.711Z,99270.06
2023-08-07T23:11:47.464Z,99273.88
2023-08-07T23:14:14.194Z,99276.63
2023-08-07T23:16:40.907Z,99279.91
2023-08-07T23:19:07.645Z,99273.69
2023-08-07T23:21:34.416Z,99277.22
2023-08-07T23:24:01.200Z,99262.75
2023-08-07T23:26:29.090Z,99273.22
2023-08-07T23:28:56.063Z,99263.03
2023-08-07T23:31:22.791Z,99275.56
2023-08-07T23:33:49.578Z,99261.28
2023-08-07T23:36:16.526Z,99267.97
2023-08-07T23:38:43.261Z,99270.28
2023-08-07T23:41:09.978Z,99268.81
2023-08-07T23:43:36.850Z,99268.63
2023-08-07T23:46:04.100Z,99258.81
2023-08-07T23:48:30.842Z,99255.88
2023-08-07T23:50:57.692Z,99248.06
2023-08-07T23:53:24.506Z,99256.16
2023-08-07T23:55:51.269Z,99257.75
2023-08-07T23:58:18.322Z,99258.38
